sensor_id;sensor_type;location;lat;lon;timestamp;P1;durP1;ratioP1;P2;durP2;ratioP2
22334;SDS011;11335;43.848;25.958;2023-09-18T00:00:49;12.93;;;7.90;;
22334;SDS011;11335;43.848;25.958;2023-09-18T00:04:33;11.85;;;8.00;;
22334;SDS011;11335;43.848;25.958;2023-09-18T00:08:18;14.15;;;6.95;;
22334;SDS011;11335;43.848;25.958;2023-09-18T00:12:02;13.43;;;6.60;;
22334;SDS011;11335;43.848;25.958;2023-09-18T00:15:47;10.90;;;6.70;;
22334;SDS011;11335;43.848;25.958;2023-09-18T00:19:31;11.95;;;6.40;;
22334;SDS011;11335;43.848;25.958;2023-09-18T00:23:16;9.27;;;5.78;;
22334;SDS011;11335;43.848;25.958;2023-09-18T00:27:00;9.02;;;5.88;;
22334;SDS011;11335;43.848;25.958;2023-09-18T00:30:48;9.27;;;5.72;;
22334;SDS011;11335;43.848;25.958;2023-09-18T00:34:32;10.77;;;5.55;;
22334;SDS011;11335;43.848;25.958;2023-09-18T00:38:16;11.77;;;5.65;;
22334;SDS011;11335;43.848;25.958;2023-09-18T00:42:01;10.43;;;5.55;;
22334;SDS011;11335;43.848;25.958;2023-09-18T00:45:45;7.18;;;4.97;;
22334;SDS011;11335;43.848;25.958;2023-09-18T00:49:30;8.95;;;5.55;;
22334;SDS011;11335;43.848;25.958;2023-09-18T00:53:22;8.52;;;5.10;;
22334;SDS011;11335;43.848;25.958;2023-09-18T00:57:08;8.27;;;5.20;;
22334;SDS011;11335;43.848;25.958;2023-09-18T01:00:52;9.90;;;5.50;;
22334;SDS011;11335;43.848;25.958;2023-09-18T01:04:37;6.97;;;5.20;;
22334;SDS011;11335;43.848;25.958;2023-09-18T01:08:22;7.15;;;5.43;;
22334;SDS011;11335;43.848;25.958;2023-09-18T01:16:01;9.32;;;5.15;;
22334;SDS011;11335;43.848;25.958;2023-09-18T01:19:49;7.18;;;5.15;;
22334;SDS011;11335;43.848;25.958;2023-09-18T01:22:37;7.70;;;5.55;;
22334;SDS011;11335;43.848;25.958;2023-09-18T01:25:27;6.75;;;5.13;;
22334;SDS011;11335;43.848;25.958;2023-09-18T01:28:28;8.70;;;5.70;;
22334;SDS011;11335;43.848;25.958;2023-09-18T01:31:15;8.95;;;5.30;;
22334;SDS011;11335;43.848;25.958;2023-09-18T01:35:00;9.68;;;5.13;;
22334;SDS011;11335;43.848;25.958;2023-09-18T01:38:45;7.28;;;5.50;;
22334;SDS011;11335;43.848;25.958;2023-09-18T01:42:31;7.28;;;4.85;;
22334;SDS011;11335;43.848;25.958;2023-09-18T01:46:16;9.65;;;5.80;;
22334;SDS011;11335;43.848;25.958;2023-09-18T01:50:04;7.95;;;5.18;;
22334;SDS011;11335;43.848;25.958;2023-09-18T01:53:49;8.05;;;5.30;;
22334;SDS011;11335;43.848;25.958;2023-09-18T01:57:33;7.65;;;5.50;;
22334;SDS011;11335;43.848;25.958;2023-09-18T02:01:17;8.75;;;6.00;;
22334;SDS011;11335;43.848;25.958;2023-09-18T02:05:02;8.45;;;5.50;;
22334;SDS011;11335;43.848;25.958;2023-09-18T02:08:46;11.32;;;5.63;;
22334;SDS011;11335;43.848;25.958;2023-09-18T02:12:30;7.75;;;5.78;;
22334;SDS011;11335;43.848;25.958;2023-09-18T02:16:14;9.60;;;5.63;;
22334;SDS011;11335;43.848;25.958;2023-09-18T02:19:58;9.10;;;5.80;;
22334;SDS011;11335;43.848;25.958;2023-09-18T02:23:43;12.10;;;6.38;;
22334;SDS011;11335;43.848;25.958;2023-09-18T02:27:27;11.57;;;6.03;;
22334;SDS011;11335;43.848;25.958;2023-09-18T02:31:11;11.73;;;6.38;;
22334;SDS011;11335;43.848;25.958;2023-09-18T02:34:55;9.02;;;5.95;;
22334;SDS011;11335;43.848;25.958;2023-09-18T02:38:39;7.95;;;5.55;;
22334;SDS011;11335;43.848;25.958;2023-09-18T02:42:24;7.35;;;5.43;;
22334;SDS011;11335;43.848;25.958;2023-09-18T02:46:08;9.77;;;5.43;;
22334;SDS011;11335;43.848;25.958;2023-09-18T02:49:52;6.13;;;5.28;;
22334;SDS011;11335;43.848;25.958;2023-09-18T02:53:37;8.90;;;6.00;;
22334;SDS011;11335;43.848;25.958;2023-09-18T02:57:21;9.90;;;5.97;;
22334;SDS011;11335;43.848;25.958;2023-09-18T03:01:06;6.97;;;5.68;;
22334;SDS011;11335;43.848;25.958;2023-09-18T03:04:51;8.07;;;6.13;;
22334;SDS011;11335;43.848;25.958;2023-09-18T03:08:35;11.50;;;6.45;;
22334;SDS011;11335;43.848;25.958;2023-09-18T03:12:20;8.75;;;6.40;;
22334;SDS011;11335;43.848;25.958;2023-09-18T03:16:05;11.38;;;6.20;;
22334;SDS011;11335;43.848;25.958;2023-09-18T03:19:49;12.55;;;6.25;;
22334;SDS011;11335;43.848;25.958;2023-09-18T03:23:33;10.32;;;6.45;;
22334;SDS011;11335;43.848;25.958;2023-09-18T03:27:18;10.35;;;6.20;;
22334;SDS011;11335;43.848;25.958;2023-09-18T03:31:02;9.20;;;6.10;;
22334;SDS011;11335;43.848;25.958;2023-09-18T03:34:46;10.20;;;6.13;;
22334;SDS011;11335;43.848;25.958;2023-09-18T03:38:36;12.70;;;6.93;;
22334;SDS011;11335;43.848;25.958;2023-09-18T03:42:20;12.27;;;6.90;;
22334;SDS011;11335;43.848;25.958;2023-09-18T03:46:05;13.23;;;6.95;;
22334;SDS011;11335;43.848;25.958;2023-09-18T03:49:50;16.92;;;6.78;;
22334;SDS011;11335;43.848;25.958;2023-09-18T03:53:34;11.30;;;6.80;;
22334;SDS011;11335;43.848;25.958;2023-09-18T03:57:19;13.52;;;7.22;;
22334;SDS011;11335;43.848;25.958;2023-09-18T04:01:03;15.50;;;7.25;;
22334;SDS011;11335;43.848;25.958;2023-09-18T04:04:49;13.05;;;7.18;;
22334;SDS011;11335;43.848;25.958;2023-09-18T04:08:33;20.83;;;8.30;;
22334;SDS011;11335;43.848;25.958;2023-09-18T04:12:17;18.17;;;8.85;;
22334;SDS011;11335;43.848;25.958;2023-09-18T04:16:01;13.50;;;8.70;;
22334;SDS011;11335;43.848;25.958;2023-09-18T04:19:46;18.88;;;10.60;;
22334;SDS011;11335;43.848;25.958;2023-09-18T04:23:31;19.75;;;10.77;;
22334;SDS011;11335;43.848;25.958;2023-09-18T04:27:15;18.00;;;11.25;;
22334;SDS011;11335;43.848;25.958;2023-09-18T04:31:01;16.98;;;11.27;;
22334;SDS011;11335;43.848;25.958;2023-09-18T04:34:45;20.77;;;11.02;;
22334;SDS011;11335;43.848;25.958;2023-09-18T04:38:30;20.67;;;10.27;;
22334;SDS011;11335;43.848;25.958;2023-09-18T04:42:15;20.42;;;8.93;;
22334;SDS011;11335;43.848;25.958;2023-09-18T04:46:00;13.15;;;8.45;;
22334;SDS011;11335;43.848;25.958;2023-09-18T04:49:44;17.42;;;7.95;;
22334;SDS011;11335;43.848;25.958;2023-09-18T04:53:29;16.35;;;7.90;;
22334;SDS011;11335;43.848;25.958;2023-09-18T04:57:13;12.38;;;8.23;;
22334;SDS011;11335;43.848;25.958;2023-09-18T05:00:58;15.93;;;8.20;;
22334;SDS011;11335;43.848;25.958;2023-09-18T05:04:42;15.15;;;9.43;;
22334;SDS011;11335;43.848;25.958;2023-09-18T05:08:27;15.13;;;10.32;;
22334;SDS011;11335;43.848;25.958;2023-09-18T05:12:11;19.83;;;10.90;;
22334;SDS011;11335;43.848;25.958;2023-09-18T05:15:56;16.58;;;11.00;;
22334;SDS011;11335;43.848;25.958;2023-09-18T05:19:28;16.63;;;10.45;;
22334;SDS011;11335;43.848;25.958;2023-09-18T05:23:13;18.70;;;11.50;;
22334;SDS011;11335;43.848;25.958;2023-09-18T05:26:58;19.27;;;10.05;;
22334;SDS011;11335;43.848;25.958;2023-09-18T05:30:43;17.25;;;11.05;;
22334;SDS011;11335;43.848;25.958;2023-09-18T12:32:59;7.47;;;5.40;;
22334;SDS011;11335;43.848;25.958;2023-09-18T12:35:49;6.38;;;5.40;;
22334;SDS011;11335;43.848;25.958;2023-09-18T12:38:35;8.57;;;5.70;;
22334;SDS011;11335;43.848;25.958;2023-09-18T12:41:23;7.10;;;5.55;;
22334;SDS011;11335;43.848;25.958;2023-09-18T12:44:09;6.63;;;5.63;;
22334;SDS011;11335;43.848;25.958;2023-09-18T12:46:55;8.60;;;5.80;;
22334;SDS011;11335;43.848;25.958;2023-09-18T12:49:41;8.77;;;5.63;;
22334;SDS011;11335;43.848;25.958;2023-09-18T12:52:27;8.30;;;6.00;;
22334;SDS011;11335;43.848;25.958;2023-09-18T12:55:24;8.40;;;5.90;;
22334;SDS011;11335;43.848;25.958;2023-09-18T12:58:10;8.10;;;5.93;;
22334;SDS011;11335;43.848;25.958;2023-09-18T13:00:56;7.22;;;5.78;;
22334;SDS011;11335;43.848;25.958;2023-09-18T13:03:42;10.02;;;5.70;;
22334;SDS011;11335;43.848;25.958;2023-09-18T13:06:28;8.15;;;5.60;;
22334;SDS011;11335;43.848;25.958;2023-09-18T13:09:17;8.80;;;5.68;;
22334;SDS011;11335;43.848;25.958;2023-09-18T13:12:04;8.35;;;5.70;;
22334;SDS011;11335;43.848;25.958;2023-09-18T13:15:00;9.25;;;5.10;;
22334;SDS011;11335;43.848;25.958;2023-09-18T13:17:54;7.38;;;5.00;;
22334;SDS011;11335;43.848;25.958;2023-09-18T13:20:40;7.43;;;5.55;;
22334;SDS011;11335;43.848;25.958;2023-09-18T13:23:29;7.07;;;5.03;;
22334;SDS011;11335;43.848;25.958;2023-09-18T13:26:14;7.30;;;5.25;;
22334;SDS011;11335;43.848;25.958;2023-09-18T13:29:00;8.02;;;5.35;;
22334;SDS011;11335;43.848;25.958;2023-09-18T13:31:46;7.32;;;5.38;;
22334;SDS011;11335;43.848;25.958;2023-09-18T13:34:31;7.70;;;5.40;;
22334;SDS011;11335;43.848;25.958;2023-09-18T13:37:17;8.65;;;5.63;;
22334;SDS011;11335;43.848;25.958;2023-09-18T13:40:05;7.13;;;5.80;;
22334;SDS011;11335;43.848;25.958;2023-09-18T13:42:54;9.25;;;5.80;;
22334;SDS011;11335;43.848;25.958;2023-09-18T13:45:41;9.70;;;5.57;;
22334;SDS011;11335;43.848;25.958;2023-09-18T13:48:26;10.43;;;5.72;;
22334;SDS011;11335;43.848;25.958;2023-09-18T13:51:13;6.13;;;5.53;;
22334;SDS011;11335;43.848;25.958;2023-09-18T13:53:59;6.60;;;5.65;;
22334;SDS011;11335;43.848;25.958;2023-09-18T13:56:44;10.15;;;6.20;;
22334;SDS011;11335;43.848;25.958;2023-09-18T13:59:30;6.65;;;5.80;;
22334;SDS011;11335;43.848;25.958;2023-09-18T14:02:16;6.85;;;5.90;;
22334;SDS011;11335;43.848;25.958;2023-09-18T14:05:02;10.80;;;6.35;;
22334;SDS011;11335;43.848;25.958;2023-09-18T14:07:48;11.07;;;6.55;;
22334;SDS011;11335;43.848;25.958;2023-09-18T14:10:34;10.20;;;6.07;;
22334;SDS011;11335;43.848;25.958;2023-09-18T14:13:20;7.35;;;6.05;;
22334;SDS011;11335;43.848;25.958;2023-09-18T14:16:05;8.75;;;6.20;;
22334;SDS011;11335;43.848;25.958;2023-09-18T14:18:51;8.52;;;5.65;;
22334;SDS011;11335;43.848;25.958;2023-09-18T14:21:39;12.85;;;5.70;;
22334;SDS011;11335;43.848;25.958;2023-09-18T14:24:25;8.30;;;5.80;;
22334;SDS011;11335;43.848;25.958;2023-09-18T14:27:11;9.20;;;6.25;;
22334;SDS011;11335;43.848;25.958;2023-09-18T14:29:57;9.63;;;6.20;;
22334;SDS011;11335;43.848;25.958;2023-09-18T14:32:43;8.70;;;6.03;;
22334;SDS011;11335;43.848;25.958;2023-09-18T14:35:29;6.63;;;5.68;;
22334;SDS011;11335;43.848;25.958;2023-09-18T14:38:15;8.93;;;6.40;;
22334;SDS011;11335;43.848;25.958;2023-09-18T14:41:00;10.82;;;5.78;;
22334;SDS011;11335;43.848;25.958;2023-09-18T14:43:48;7.55;;;5.80;;
22334;SDS011;11335;43.848;25.958;2023-09-18T14:46:34;8.50;;;5.75;;
22334;SDS011;11335;43.848;25.958;2023-09-18T14:49:20;9.82;;;5.72;;
22334;SDS011;11335;43.848;25.958;2023-09-18T14:52:05;9.45;;;6.28;;
22334;SDS011;11335;43.848;25.958;2023-09-18T14:54:51;8.98;;;5.85;;
22334;SDS011;11335;43.848;25.958;2023-09-18T14:57:37;11.52;;;6.20;;
22334;SDS011;11335;43.848;25.958;2023-09-18T15:00:23;13.70;;;6.97;;
22334;SDS011;11335;43.848;25.958;2023-09-18T15:03:09;9.93;;;6.22;;
22334;SDS011;11335;43.848;25.958;2023-09-18T15:05:55;10.82;;;6.20;;
22334;SDS011;11335;43.848;25.958;2023-09-18T15:08:40;12.35;;;6.30;;
22334;SDS011;11335;43.848;25.958;2023-09-18T15:11:26;10.45;;;6.43;;
22334;SDS011;11335;43.848;25.958;2023-09-18T15:14:12;8.68;;;6.53;;
22334;SDS011;11335;43.848;25.958;2023-09-18T15:16:57;9.73;;;6.55;;
22334;SDS011;11335;43.848;25.958;2023-09-18T15:19:43;11.32;;;6.60;;
22334;SDS011;11335;43.848;25.958;2023-09-18T15:22:30;10.50;;;6.90;;
22334;SDS011;11335;43.848;25.958;2023-09-18T15:25:16;9.07;;;6.50;;
22334;SDS011;11335;43.848;25.958;2023-09-18T15:28:01;11.07;;;6.43;;
22334;SDS011;11335;43.848;25.958;2023-09-18T15:30:47;12.70;;;6.68;;
22334;SDS011;11335;43.848;25.958;2023-09-18T15:33:33;11.90;;;6.18;;
22334;SDS011;11335;43.848;25.958;2023-09-18T15:36:18;7.82;;;6.40;;
22334;SDS011;11335;43.848;25.958;2023-09-18T15:39:04;12.25;;;6.35;;
22334;SDS011;11335;43.848;25.958;2023-09-18T15:41:50;10.05;;;6.32;;
22334;SDS011;11335;43.848;25.958;2023-09-18T15:44:36;9.25;;;6.13;;
22334;SDS011;11335;43.848;25.958;2023-09-18T15:47:22;10.32;;;6.50;;
22334;SDS011;11335;43.848;25.958;2023-09-18T15:50:07;10.13;;;6.35;;
22334;SDS011;11335;43.848;25.958;2023-09-18T15:52:54;9.75;;;5.55;;
22334;SDS011;11335;43.848;25.958;2023-09-18T15:55:40;8.80;;;5.75;;
22334;SDS011;11335;43.848;25.958;2023-09-18T15:58:26;8.45;;;6.25;;
22334;SDS011;11335;43.848;25.958;2023-09-18T16:01:11;12.32;;;6.88;;
22334;SDS011;11335;43.848;25.958;2023-09-18T16:03:58;10.55;;;6.55;;
22334;SDS011;11335;43.848;25.958;2023-09-18T16:06:44;8.20;;;6.55;;
22334;SDS011;11335;43.848;25.958;2023-09-18T16:09:31;8.63;;;6.07;;
22334;SDS011;11335;43.848;25.958;2023-09-18T16:12:17;10.25;;;6.50;;
22334;SDS011;11335;43.848;25.958;2023-09-18T16:15:03;8.25;;;6.13;;
22334;SDS011;11335;43.848;25.958;2023-09-18T16:17:49;14.95;;;6.97;;
22334;SDS011;11335;43.848;25.958;2023-09-18T16:20:35;9.30;;;6.38;;
22334;SDS011;11335;43.848;25.958;2023-09-18T16:23:21;10.98;;;6.57;;
22334;SDS011;11335;43.848;25.958;2023-09-18T16:26:06;9.93;;;6.93;;
22334;SDS011;11335;43.848;25.958;2023-09-18T16:28:52;11.20;;;6.90;;
22334;SDS011;11335;43.848;25.958;2023-09-18T16:31:38;12.18;;;7.32;;
22334;SDS011;11335;43.848;25.958;2023-09-18T16:34:24;12.85;;;7.05;;
22334;SDS011;11335;43.848;25.958;2023-09-18T16:37:10;11.65;;;6.28;;
22334;SDS011;11335;43.848;25.958;2023-09-18T16:39:55;7.38;;;6.25;;
22334;SDS011;11335;43.848;25.958;2023-09-18T16:42:41;10.40;;;6.53;;
22334;SDS011;11335;43.848;25.958;2023-09-18T16:45:29;11.07;;;6.32;;
22334;SDS011;11335;43.848;25.958;2023-09-18T16:48:15;13.43;;;6.85;;
22334;SDS011;11335;43.848;25.958;2023-09-18T16:51:00;8.57;;;6.15;;
22334;SDS011;11335;43.848;25.958;2023-09-18T16:53:46;14.13;;;7.45;;
22334;SDS011;11335;43.848;25.958;2023-09-18T16:56:34;9.77;;;6.95;;
22334;SDS011;11335;43.848;25.958;2023-09-18T16:59:20;15.85;;;6.88;;
22334;SDS011;11335;43.848;25.958;2023-09-18T17:02:08;11.00;;;6.65;;
22334;SDS011;11335;43.848;25.958;2023-09-18T17:04:53;14.70;;;7.07;;
22334;SDS011;11335;43.848;25.958;2023-09-18T17:07:39;13.43;;;7.30;;
22334;SDS011;11335;43.848;25.958;2023-09-18T17:10:25;11.02;;;6.78;;
22334;SDS011;11335;43.848;25.958;2023-09-18T17:13:11;11.13;;;6.45;;
22334;SDS011;11335;43.848;25.958;2023-09-18T17:15:57;12.45;;;6.88;;
22334;SDS011;11335;43.848;25.958;2023-09-18T17:18:43;14.80;;;7.00;;
22334;SDS011;11335;43.848;25.958;2023-09-18T17:21:29;11.13;;;7.03;;
22334;SDS011;11335;43.848;25.958;2023-09-18T17:24:15;9.82;;;6.57;;
22334;SDS011;11335;43.848;25.958;2023-09-18T17:27:01;12.60;;;6.15;;
22334;SDS011;11335;43.848;25.958;2023-09-18T17:29:49;12.63;;;6.50;;
22334;SDS011;11335;43.848;25.958;2023-09-18T17:32:34;15.77;;;6.30;;
22334;SDS011;11335;43.848;25.958;2023-09-18T17:35:21;9.18;;;6.45;;
22334;SDS011;11335;43.848;25.958;2023-09-18T17:38:07;10.07;;;5.85;;
22334;SDS011;11335;43.848;25.958;2023-09-18T17:40:53;17.88;;;6.57;;
22334;SDS011;11335;43.848;25.958;2023-09-18T17:43:38;22.67;;;7.28;;
22334;SDS011;11335;43.848;25.958;2023-09-18T17:46:24;15.60;;;6.63;;
22334;SDS011;11335;43.848;25.958;2023-09-18T17:49:10;14.13;;;6.63;;
22334;SDS011;11335;43.848;25.958;2023-09-18T17:51:58;12.40;;;7.47;;
22334;SDS011;11335;43.848;25.958;2023-09-18T17:54:43;15.18;;;7.65;;
22334;SDS011;11335;43.848;25.958;2023-09-18T17:57:29;11.15;;;6.68;;
22334;SDS011;11335;43.848;25.958;2023-09-18T18:00:15;15.70;;;7.03;;
22334;SDS011;11335;43.848;25.958;2023-09-18T18:03:01;15.63;;;7.00;;
22334;SDS011;11335;43.848;25.958;2023-09-18T18:05:47;12.10;;;6.70;;
22334;SDS011;11335;43.848;25.958;2023-09-18T18:08:34;12.73;;;7.13;;
22334;SDS011;11335;43.848;25.958;2023-09-18T18:11:20;13.93;;;7.15;;
22334;SDS011;11335;43.848;25.958;2023-09-18T18:14:08;13.65;;;7.38;;
22334;SDS011;11335;43.848;25.958;2023-09-18T18:16:54;17.83;;;7.03;;
22334;SDS011;11335;43.848;25.958;2023-09-18T18:19:40;13.23;;;8.30;;
22334;SDS011;11335;43.848;25.958;2023-09-18T18:22:25;10.90;;;6.20;;
22334;SDS011;11335;43.848;25.958;2023-09-18T18:25:11;12.05;;;6.20;;
22334;SDS011;11335;43.848;25.958;2023-09-18T18:27:58;12.00;;;6.88;;
22334;SDS011;11335;43.848;25.958;2023-09-18T18:30:43;13.93;;;8.25;;
22334;SDS011;11335;43.848;25.958;2023-09-18T18:33:29;10.85;;;6.20;;
22334;SDS011;11335;43.848;25.958;2023-09-18T18:36:15;7.78;;;5.55;;
22334;SDS011;11335;43.848;25.958;2023-09-18T18:39:00;7.53;;;5.85;;
22334;SDS011;11335;43.848;25.958;2023-09-18T18:41:46;7.72;;;5.68;;
22334;SDS011;11335;43.848;25.958;2023-09-18T18:44:32;8.20;;;5.97;;
22334;SDS011;11335;43.848;25.958;2023-09-18T18:47:18;10.35;;;5.90;;
22334;SDS011;11335;43.848;25.958;2023-09-18T18:50:04;7.65;;;5.70;;
22334;SDS011;11335;43.848;25.958;2023-09-18T18:52:50;8.18;;;5.95;;
22334;SDS011;11335;43.848;25.958;2023-09-18T18:55:36;12.13;;;6.00;;
22334;SDS011;11335;43.848;25.958;2023-09-18T18:58:22;11.00;;;5.40;;
22334;SDS011;11335;43.848;25.958;2023-09-18T19:01:08;6.50;;;5.68;;
22334;SDS011;11335;43.848;25.958;2023-09-18T19:03:53;7.68;;;5.80;;
22334;SDS011;11335;43.848;25.958;2023-09-18T19:06:40;12.25;;;5.40;;
22334;SDS011;11335;43.848;25.958;2023-09-18T19:09:26;7.40;;;5.30;;
22334;SDS011;11335;43.848;25.958;2023-09-18T19:12:12;7.20;;;5.55;;
22334;SDS011;11335;43.848;25.958;2023-09-18T19:14:57;9.55;;;5.22;;
22334;SDS011;11335;43.848;25.958;2023-09-18T19:17:44;5.95;;;5.10;;
22334;SDS011;11335;43.848;25.958;2023-09-18T19:20:31;9.98;;;5.20;;
22334;SDS011;11335;43.848;25.958;2023-09-18T19:23:17;10.23;;;5.32;;
22334;SDS011;11335;43.848;25.958;2023-09-18T19:26:02;9.50;;;6.10;;
22334;SDS011;11335;43.848;25.958;2023-09-18T19:28:49;7.15;;;5.40;;
22334;SDS011;11335;43.848;25.958;2023-09-18T19:31:36;8.73;;;5.60;;
22334;SDS011;11335;43.848;25.958;2023-09-18T19:34:21;9.23;;;5.45;;
22334;SDS011;11335;43.848;25.958;2023-09-18T19:37:07;10.23;;;5.38;;
22334;SDS011;11335;43.848;25.958;2023-09-18T19:39:53;8.20;;;5.43;;
22334;SDS011;11335;43.848;25.958;2023-09-18T19:42:39;6.25;;;5.18;;
22334;SDS011;11335;43.848;25.958;2023-09-18T19:45:25;8.82;;;5.50;;
22334;SDS011;11335;43.848;25.958;2023-09-18T19:48:11;10.70;;;5.80;;
22334;SDS011;11335;43.848;25.958;2023-09-18T19:50:57;7.45;;;5.30;;
22334;SDS011;11335;43.848;25.958;2023-09-18T19:53:44;9.35;;;5.50;;
22334;SDS011;11335;43.848;25.958;2023-09-18T19:56:30;6.45;;;5.15;;
22334;SDS011;11335;43.848;25.958;2023-09-18T19:59:16;8.20;;;5.35;;
22334;SDS011;11335;43.848;25.958;2023-09-18T20:02:01;6.13;;;5.13;;
22334;SDS011;11335;43.848;25.958;2023-09-18T20:04:51;9.48;;;5.80;;
22334;SDS011;11335;43.848;25.958;2023-09-18T20:07:37;7.95;;;5.18;;
22334;SDS011;11335;43.848;25.958;2023-09-18T20:10:23;7.15;;;4.72;;
22334;SDS011;11335;43.848;25.958;2023-09-18T20:13:09;8.00;;;5.55;;
22334;SDS011;11335;43.848;25.958;2023-09-18T20:15:56;8.65;;;5.47;;
22334;SDS011;11335;43.848;25.958;2023-09-18T20:18:43;6.10;;;4.95;;
22334;SDS011;11335;43.848;25.958;2023-09-18T20:21:29;7.03;;;5.03;;
22334;SDS011;11335;43.848;25.958;2023-09-18T20:24:15;7.75;;;5.30;;
22334;SDS011;11335;43.848;25.958;2023-09-18T20:27:00;12.15;;;4.95;;
22334;SDS011;11335;43.848;25.958;2023-09-18T20:29:46;9.48;;;5.68;;
22334;SDS011;11335;43.848;25.958;2023-09-18T20:32:31;7.88;;;5.60;;
22334;SDS011;11335;43.848;25.958;2023-09-18T20:35:18;8.50;;;4.78;;
22334;SDS011;11335;43.848;25.958;2023-09-18T20:38:04;6.78;;;5.03;;
22334;SDS011;11335;43.848;25.958;2023-09-18T20:40:50;9.07;;;5.30;;
22334;SDS011;11335;43.848;25.958;2023-09-18T20:43:35;8.43;;;5.35;;
22334;SDS011;11335;43.848;25.958;2023-09-18T20:46:27;10.65;;;5.75;;
22334;SDS011;11335;43.848;25.958;2023-09-18T20:49:13;7.13;;;5.30;;
22334;SDS011;11335;43.848;25.958;2023-09-18T20:51:58;9.77;;;5.43;;
22334;SDS011;11335;43.848;25.958;2023-09-18T20:54:44;9.07;;;5.25;;
22334;SDS011;11335;43.848;25.958;2023-09-18T20:57:29;7.78;;;5.28;;
22334;SDS011;11335;43.848;25.958;2023-09-18T21:00:15;10.43;;;5.93;;
22334;SDS011;11335;43.848;25.958;2023-09-18T21:03:02;6.30;;;5.10;;
22334;SDS011;11335;43.848;25.958;2023-09-18T21:05:54;8.00;;;5.55;;
22334;SDS011;11335;43.848;25.958;2023-09-18T21:08:40;10.95;;;5.60;;
22334;SDS011;11335;43.848;25.958;2023-09-18T21:11:25;7.47;;;5.40;;
22334;SDS011;11335;43.848;25.958;2023-09-18T21:14:13;8.43;;;5.32;;
22334;SDS011;11335;43.848;25.958;2023-09-18T21:16:58;9.57;;;5.50;;
22334;SDS011;11335;43.848;25.958;2023-09-18T21:19:44;8.55;;;5.50;;
22334;SDS011;11335;43.848;25.958;2023-09-18T21:22:30;9.60;;;5.70;;
22334;SDS011;11335;43.848;25.958;2023-09-18T21:25:17;10.88;;;5.20;;
22334;SDS011;11335;43.848;25.958;2023-09-18T21:28:03;6.35;;;5.45;;
22334;SDS011;11335;43.848;25.958;2023-09-18T21:30:49;7.90;;;5.35;;
22334;SDS011;11335;43.848;25.958;2023-09-18T21:33:35;8.20;;;5.50;;
22334;SDS011;11335;43.848;25.958;2023-09-18T21:36:23;9.23;;;6.00;;
22334;SDS011;11335;43.848;25.958;2023-09-18T21:39:09;7.40;;;5.20;;
22334;SDS011;11335;43.848;25.958;2023-09-18T21:41:55;6.93;;;5.20;;
22334;SDS011;11335;43.848;25.958;2023-09-18T21:44:41;8.00;;;6.00;;
22334;SDS011;11335;43.848;25.958;2023-09-18T21:47:26;7.13;;;5.60;;
22334;SDS011;11335;43.848;25.958;2023-09-18T21:50:12;9.15;;;5.63;;
22334;SDS011;11335;43.848;25.958;2023-09-18T21:52:57;8.23;;;5.78;;
22334;SDS011;11335;43.848;25.958;2023-09-18T21:55:43;12.30;;;5.70;;
22334;SDS011;11335;43.848;25.958;2023-09-18T21:58:29;7.43;;;5.72;;
22334;SDS011;11335;43.848;25.958;2023-09-18T22:01:15;9.75;;;5.75;;
22334;SDS011;11335;43.848;25.958;2023-09-18T22:04:02;8.73;;;6.10;;
22334;SDS011;11335;43.848;25.958;2023-09-18T22:06:50;7.35;;;5.53;;
22334;SDS011;11335;43.848;25.958;2023-09-18T22:09:35;7.75;;;5.65;;
22334;SDS011;11335;43.848;25.958;2023-09-18T22:12:22;8.25;;;5.60;;
22334;SDS011;11335;43.848;25.958;2023-09-18T22:15:10;8.25;;;5.65;;
22334;SDS011;11335;43.848;25.958;2023-09-18T22:17:55;7.93;;;5.72;;
22334;SDS011;11335;43.848;25.958;2023-09-18T22:20:42;8.43;;;6.03;;
22334;SDS011;11335;43.848;25.958;2023-09-18T22:23:27;6.25;;;5.28;;
22334;SDS011;11335;43.848;25.958;2023-09-18T22:26:13;8.77;;;5.57;;
22334;SDS011;11335;43.848;25.958;2023-09-18T22:28:59;7.88;;;5.40;;
22334;SDS011;11335;43.848;25.958;2023-09-18T22:31:44;8.82;;;5.57;;
22334;SDS011;11335;43.848;25.958;2023-09-18T22:34:34;5.70;;;5.10;;
22334;SDS011;11335;43.848;25.958;2023-09-18T22:37:20;9.20;;;5.68;;
22334;SDS011;11335;43.848;25.958;2023-09-18T22:55:17;8.68;;;5.65;;
22334;SDS011;11335;43.848;25.958;2023-09-18T22:58:03;7.03;;;5.53;;
22334;SDS011;11335;43.848;25.958;2023-09-18T23:00:49;9.98;;;5.65;;
22334;SDS011;11335;43.848;25.958;2023-09-18T23:03:35;8.75;;;5.50;;
22334;SDS011;11335;43.848;25.958;2023-09-18T23:06:22;8.60;;;5.75;;
22334;SDS011;11335;43.848;25.958;2023-09-18T23:09:12;8.50;;;5.93;;
22334;SDS011;11335;43.848;25.958;2023-09-18T23:11:59;8.18;;;5.40;;
22334;SDS011;11335;43.848;25.958;2023-09-18T23:14:45;6.43;;;5.30;;
22334;SDS011;11335;43.848;25.958;2023-09-18T23:17:31;8.80;;;5.43;;
22334;SDS011;11335;43.848;25.958;2023-09-18T23:20:17;7.25;;;5.53;;
22334;SDS011;11335;43.848;25.958;2023-09-18T23:23:04;6.93;;;5.43;;
22334;SDS011;11335;43.848;25.958;2023-09-18T23:25:55;8.98;;;5.82;;
22334;SDS011;11335;43.848;25.958;2023-09-18T23:28:41;5.82;;;5.22;;
22334;SDS011;11335;43.848;25.958;2023-09-18T23:31:30;7.78;;;5.50;;
22334;SDS011;11335;43.848;25.958;2023-09-18T23:34:16;6.88;;;5.15;;
22334;SDS011;11335;43.848;25.958;2023-09-18T23:37:02;6.55;;;4.93;;
22334;SDS011;11335;43.848;25.958;2023-09-18T23:39:48;7.70;;;6.00;;
22334;SDS011;11335;43.848;25.958;2023-09-18T23:42:35;6.90;;;4.88;;
22334;SDS011;11335;43.848;25.958;2023-09-18T23:45:22;8.65;;;5.80;;
22334;SDS011;11335;43.848;25.958;2023-09-18T23:50:57;6.85;;;5.32;;
22334;SDS011;11335;43.848;25.958;2023-09-18T23:53:44;6.40;;;5.03;;
22334;SDS011;11335;43.848;25.958;2023-09-18T23:56:30;7.65;;;5.40;;
22334;SDS011;11335;43.848;25.958;2023-09-18T23:59:17;7.95;;;5.32;;
